createdAt,value
2022-10-17T00:01:01.441Z,101092.88
2022-10-17T00:03:46.822Z,101099.94
2022-10-17T00:06:32.352Z,101099.03
2022-10-17T00:09:17.505Z,101101.66
2022-10-17T00:12:02.522Z,101101.69
2022-10-17T00:14:47.511Z,101109.53
2022-10-17T00:17:33.905Z,101110.41
2022-10-17T00:20:18.910Z,101107.88
2022-10-17T00:23:04.315Z,101106.06
2022-10-17T00:26:01.533Z,101116.50
2022-10-17T00:28:51.769Z,101104.34
2022-10-17T00:31:37.229Z,101111.22
2022-10-17T00:34:22.600Z,101124.25
2022-10-17T00:37:07.982Z,101107.75
2022-10-17T00:39:53.980Z,101107.75
2022-10-17T00:42:39.411Z,101107.81
2022-10-17T00:45:30.446Z,101106.94
2022-10-17T00:48:21.170Z,101098.25
2022-10-17T00:51:09.089Z,101096.53
2022-10-17T00:53:55.330Z,101101.75
2022-10-17T00:56:41.098Z,101094.78
2022-10-17T00:59:28.053Z,101094.75
2022-10-17T01:02:15.835Z,101100.88
2022-10-17T01:05:01.610Z,101094.75
2022-10-17T01:07:49.132Z,101104.38
2022-10-17T01:10:54.672Z,101101.75
2022-10-17T01:13:49.417Z,101099.09
2022-10-17T01:16:37.558Z,101109.41
2022-10-17T01:19:31.441Z,101096.50
2022-10-17T01:22:27.150Z,101100.75
2022-10-17T01:25:21.449Z,101089.50
2022-10-17T01:28:24.704Z,101101.63
2022-10-17T01:31:21.767Z,101095.56
2022-10-17T01:34:21.240Z,101100.69
2022-10-17T01:37:16.635Z,101104.13
2022-10-17T01:40:05.186Z,101097.22
2022-10-17T01:43:07.393Z,101085.03
2022-10-17T01:45:59.271Z,101082.41
2022-10-17T01:48:46.324Z,101079.03
2022-10-17T01:51:39.037Z,101084.31
2022-10-17T01:54:52.918Z,101072.09
2022-10-17T01:57:42.192Z,101070.38
2022-10-17T02:00:28.203Z,101065.09
2022-10-17T02:03:18.096Z,101071.19
2022-10-17T02:06:04.060Z,101061.63
2022-10-17T02:08:51.064Z,101058.16
2022-10-17T02:11:36.953Z,101055.59
2022-10-17T02:14:40.865Z,101044.22
2022-10-17T02:17:44.566Z,101047.72
2022-10-17T02:20:47.026Z,101053.06
2022-10-17T02:24:00.473Z,101053.94
2022-10-17T02:26:55.325Z,101046.88
2022-10-17T02:30:13.845Z,101043.50
2022-10-17T02:33:05.425Z,101046.00
2022-10-17T02:35:54.531Z,101045.13
2022-10-17T02:38:42.000Z,101047.81
2022-10-17T02:44:18.744Z,101048.69
2022-10-17T02:47:12.644Z,101046.09
2022-10-17T02:49:58.208Z,101041.72
2022-10-17T02:53:01.221Z,101046.88
2022-10-17T02:55:53.627Z,101046.94
2022-10-17T02:58:40.349Z,101053.78
2022-10-17T03:01:27.253Z,101045.13
2022-10-17T03:04:14.373Z,101043.38
2022-10-17T03:07:00.031Z,101045.94
2022-10-17T03:09:44.967Z,101044.22
2022-10-17T03:12:30.466Z,101045.13
2022-10-17T03:15:15.940Z,101039.00
2022-10-17T03:18:01.128Z,101037.28
2022-10-17T03:20:46.615Z,101044.22
2022-10-17T03:23:31.543Z,101048.53
2022-10-17T03:26:17.083Z,101056.34
2022-10-17T03:29:02.430Z,101057.22
2022-10-17T03:31:47.898Z,101056.34
2022-10-17T03:34:51.887Z,101046.84
2022-10-17T03:37:37.344Z,101053.81
2022-10-17T03:40:22.768Z,101046.94
2022-10-17T03:43:07.665Z,101054.69
2022-10-17T03:45:52.771Z,101052.13
2022-10-17T03:48:37.595Z,101051.19
2022-10-17T03:51:23.195Z,101054.66
2022-10-17T03:54:08.475Z,101049.53
2022-10-17T03:56:54.052Z,101036.53
2022-10-17T03:59:39.480Z,101042.59
2022-10-17T04:02:24.638Z,101040.88
2022-10-17T04:05:09.638Z,101055.53
2022-10-17T04:07:54.463Z,101044.19
2022-10-17T04:10:39.887Z,101040.72
2022-10-17T04:13:25.307Z,101043.34
2022-10-17T04:16:15.848Z,101050.34
2022-10-17T04:19:01.328Z,101057.31
2022-10-17T04:21:46.444Z,101060.66
2022-10-17T04:24:31.960Z,101055.47
2022-10-17T04:27:17.349Z,101063.28
2022-10-17T04:30:02.703Z,101071.09
2022-10-17T04:32:47.760Z,101070.25
2022-10-17T04:35:32.919Z,101065.09
2022-10-17T04:38:17.823Z,101067.69
2022-10-17T04:41:06.196Z,101061.63
2022-10-17T04:43:51.477Z,101063.41
2022-10-17T04:46:36.835Z,101061.56
2022-10-17T04:49:21.973Z,101072.00
2022-10-17T04:52:06.984Z,101071.09
2022-10-17T04:54:51.960Z,101081.50
2022-10-17T04:57:37.116Z,101069.28
2022-10-17T05:00:22.706Z,101078.00
2022-10-17T05:03:07.674Z,101069.34
2022-10-17T05:05:53.135Z,101067.63
2022-10-17T05:08:38.925Z,101071.94
2022-10-17T05:11:28.707Z,101072.03
2022-10-17T05:14:15.354Z,101064.97
2022-10-17T05:17:00.563Z,101069.31
2022-10-17T05:19:45.974Z,101066.69
2022-10-17T05:22:31.436Z,101067.53
2022-10-17T05:25:17.032Z,101067.50
2022-10-17T05:28:02.597Z,101073.50
2022-10-17T05:30:47.738Z,101073.53
2022-10-17T05:33:33.971Z,101063.19
2022-10-17T05:36:19.304Z,101061.44
2022-10-17T05:39:04.676Z,101066.69
2022-10-17T05:41:49.961Z,101057.97
2022-10-17T05:44:35.062Z,101061.44
2022-10-17T05:47:20.004Z,101065.75
2022-10-17T05:50:06.230Z,101076.16
2022-10-17T05:52:55.488Z,101079.69
2022-10-17T05:55:40.343Z,101084.03
2022-10-17T05:58:45.423Z,101080.59
2022-10-17T06:01:31.604Z,101083.19
2022-10-17T06:04:17.250Z,101085.84
2022-10-17T06:07:02.146Z,101083.28
2022-10-17T06:09:47.077Z,101083.38
2022-10-17T06:12:32.231Z,101083.41
2022-10-17T06:15:17.279Z,101085.00
2022-10-17T06:18:02.262Z,101085.84
2022-10-17T06:20:47.884Z,101091.97
2022-10-17T06:23:33.193Z,101096.22
2022-10-17T06:26:19.326Z,101098.84
2022-10-17T06:29:04.728Z,101115.34
2022-10-17T06:31:50.215Z,101126.63
2022-10-17T06:34:35.324Z,101131.88
2022-10-17T06:37:20.724Z,101132.78
2022-10-17T06:40:06.901Z,101139.03
2022-10-17T06:42:51.962Z,101146.03
2022-10-17T06:45:39.020Z,101149.59
2022-10-17T06:48:24.380Z,101141.84
2022-10-17T06:51:10.914Z,101145.31
2022-10-17T06:53:58.085Z,101143.66
2022-10-17T06:56:43.443Z,101158.41
2022-10-17T06:59:28.594Z,101162.78
2022-10-17T07:02:13.947Z,101155.00
2022-10-17T07:04:58.839Z,101167.19
2022-10-17T07:07:45.577Z,101167.25
2022-10-17T07:10:32.649Z,101163.81
2022-10-17T07:13:18.500Z,101155.13
2022-10-17T07:16:04.320Z,101164.66
2022-10-17T07:18:50.608Z,101181.19
2022-10-17T07:21:38.953Z,101180.44
2022-10-17T07:24:24.564Z,101175.25
2022-10-17T07:27:09.860Z,101176.09
2022-10-17T07:29:54.942Z,101188.31
2022-10-17T07:32:40.416Z,101178.78
2022-10-17T07:35:26.037Z,101179.69
2022-10-17T07:38:10.926Z,101179.69
2022-10-17T07:41:00.744Z,101178.81
2022-10-17T07:43:46.191Z,101173.59
2022-10-17T07:46:31.256Z,101184.94
2022-10-17T07:49:16.652Z,101177.13
2022-10-17T07:52:02.045Z,101184.97
2022-10-17T07:54:47.289Z,101187.56
2022-10-17T07:57:32.217Z,101186.69
2022-10-17T08:00:17.517Z,101186.72
2022-10-17T08:03:03.183Z,101183.25
2022-10-17T08:05:48.175Z,101171.03
2022-10-17T08:08:33.509Z,101165.81
2022-10-17T08:11:19.028Z,101161.50
2022-10-17T08:14:04.278Z,101160.63
2022-10-17T08:16:49.665Z,101152.75
2022-10-17T08:19:37.649Z,101137.06
2022-10-17T08:22:23.224Z,101144.88
2022-10-17T08:25:08.838Z,101144.88
2022-10-17T08:27:54.297Z,101145.66
2022-10-17T08:30:39.691Z,101138.69
2022-10-17T08:33:25.084Z,101124.72
2022-10-17T08:36:12.787Z,101142.16
2022-10-17T08:38:58.001Z,101133.41
2022-10-17T08:42:01.409Z,101124.59
2022-10-17T08:45:31.560Z,101129.81
2022-10-17T08:48:21.320Z,101132.38
2022-10-17T08:51:30.966Z,101128.84
2022-10-17T08:54:36.446Z,101132.31
2022-10-17T08:57:22.067Z,101137.53
2022-10-17T09:00:22.891Z,101130.41
2022-10-17T09:03:08.174Z,101136.47
2022-10-17T09:06:05.892Z,101136.47
2022-10-17T09:09:11.618Z,101136.47
2022-10-17T09:11:57.055Z,101142.50
2022-10-17T09:15:00.891Z,101142.47
2022-10-17T09:18:11.219Z,101131.03
2022-10-17T09:21:27.822Z,101118.66
2022-10-17T09:24:28.066Z,101125.47
2022-10-17T09:27:46.240Z,101122.69
2022-10-17T09:30:45.031Z,101119.84
2022-10-17T09:33:53.899Z,101104.84
2022-10-17T09:36:40.754Z,101102.91
2022-10-17T09:39:26.641Z,101115.81
2022-10-17T09:42:17.830Z,101098.13
2022-10-17T09:45:24.768Z,101095.44
2022-10-17T09:48:09.855Z,101094.44
2022-10-17T09:51:08.236Z,101101.09
2022-10-17T09:54:04.623Z,101105.09
2022-10-17T09:57:08.436Z,101079.28
2022-10-17T10:00:02.713Z,101066.88
2022-10-17T10:02:48.166Z,101060.09
2022-10-17T10:05:33.252Z,101055.69
2022-10-17T10:08:19.716Z,101075.91
2022-10-17T10:11:11.841Z,101097.84
2022-10-17T10:14:12.054Z,101089.06
2022-10-17T10:16:56.865Z,101093.38
2022-10-17T10:19:50.269Z,101106.50
2022-10-17T10:22:35.979Z,101077.25
2022-10-17T10:25:21.556Z,101110.59
2022-10-17T10:28:11.492Z,101099.34
2022-10-17T10:30:58.673Z,101122.09
2022-10-17T10:33:49.347Z,101122.50
2022-10-17T10:36:59.278Z,101088.25
2022-10-17T10:39:49.417Z,101142.56
2022-10-17T10:42:37.599Z,101101.34
2022-10-17T10:45:49.287Z,101146.72
2022-10-17T10:48:36.570Z,101149.28
2022-10-17T10:51:49.515Z,101156.19
2022-10-17T10:57:33.849Z,101160.66
2022-10-17T11:00:25.152Z,101142.28
2022-10-17T11:03:23.610Z,101136.84
2022-10-17T11:06:23.693Z,101152.69
2022-10-17T11:09:34.609Z,101163.16
2022-10-17T11:12:25.455Z,101165.06
2022-10-17T11:15:25.026Z,101187.16
2022-10-17T11:18:24.283Z,101154.47
2022-10-17T11:21:16.284Z,101178.13
2022-10-17T11:24:21.639Z,101208.06
2022-10-17T11:27:08.039Z,101187.72
2022-10-17T11:29:53.624Z,101202.69
2022-10-17T11:32:51.566Z,101231.63
2022-10-17T11:35:40.691Z,101241.41
2022-10-17T11:38:38.299Z,101209.84
2022-10-17T11:41:35.157Z,101230.78
2022-10-17T11:44:32.062Z,101215.00
2022-10-17T11:47:20.323Z,101257.09
2022-10-17T11:54:04.593Z,101262.41
2022-10-17T11:57:05.228Z,101261.66
2022-10-17T12:00:42.780Z,101280.94
2022-10-17T12:03:35.672Z,101271.56
2022-10-17T12:06:51.180Z,101271.56
2022-10-17T12:09:42.348Z,101271.50
2022-10-17T12:12:34.139Z,101269.91
2022-10-17T12:15:19.532Z,101277.81
2022-10-17T12:18:04.957Z,101274.28
2022-10-17T12:21:00.999Z,101252.44
2022-10-17T12:23:54.427Z,101254.06
2022-10-17T12:26:39.615Z,101235.78
2022-10-17T12:29:30.092Z,101229.59
2022-10-17T12:32:15.927Z,101238.41
2022-10-17T12:35:01.423Z,101248.16
2022-10-17T12:37:50.635Z,101244.75
2022-10-17T12:40:36.077Z,101256.13
2022-10-17T12:43:27.474Z,101254.44
2022-10-17T12:46:13.523Z,101262.28
2022-10-17T12:49:00.360Z,101253.59
2022-10-17T12:52:20.822Z,101255.34
2022-10-17T12:55:15.768Z,101246.63
2022-10-17T12:58:12.450Z,101259.03
2022-10-17T13:01:22.724Z,101249.41
2022-10-17T13:04:04.777Z,101250.31
2022-10-17T13:06:56.124Z,101263.47
2022-10-17T13:09:44.176Z,101262.66
2022-10-17T13:12:29.390Z,101264.38
2022-10-17T13:15:18.949Z,101256.38
2022-10-17T13:18:04.655Z,101264.22
2022-10-17T13:21:07.196Z,101267.78
2022-10-17T13:23:52.695Z,101267.69
2022-10-17T13:26:38.278Z,101277.34
2022-10-17T13:29:23.955Z,101268.66
2022-10-17T13:32:10.209Z,101286.16
2022-10-17T13:35:14.000Z,101283.53
2022-10-17T13:38:00.383Z,101292.31
2022-10-17T13:40:50.113Z,101290.56
2022-10-17T13:43:35.622Z,101281.69
2022-10-17T13:46:37.469Z,101286.91
2022-10-17T13:49:32.370Z,101301.13
2022-10-17T13:52:20.374Z,101326.53
2022-10-17T13:55:08.841Z,101335.28
2022-10-17T13:57:54.039Z,101328.41
2022-10-17T14:00:39.489Z,101328.31
2022-10-17T14:03:31.232Z,101331.84
2022-10-17T14:06:26.921Z,101334.50
2022-10-17T14:09:23.531Z,101336.16
2022-10-17T14:12:11.733Z,101336.16
2022-10-17T14:15:10.151Z,101338.88
2022-10-17T14:18:06.714Z,101349.47
2022-10-17T14:24:22.234Z,101360.94
2022-10-17T14:27:35.170Z,101368.81
2022-10-17T14:30:51.606Z,101369.81
2022-10-17T14:33:32.357Z,101373.34
2022-10-17T14:36:18.474Z,101384.72
2022-10-17T14:39:10.577Z,101384.75
2022-10-17T14:42:03.398Z,101378.59
2022-10-17T14:44:52.871Z,101385.66
2022-10-17T14:47:43.625Z,101380.41
2022-10-17T14:50:31.751Z,101388.31
2022-10-17T14:53:17.526Z,101387.41
2022-10-17T14:56:20.197Z,101398.78
2022-10-17T14:59:11.118Z,101386.59
2022-10-17T15:01:57.802Z,101397.97
2022-10-17T15:04:43.177Z,101401.41
2022-10-17T15:07:28.634Z,101401.41
2022-10-17T15:10:32.791Z,101408.50
2022-10-17T15:13:39.962Z,101408.47
2022-10-17T15:16:25.662Z,101406.63
2022-10-17T15:19:13.416Z,101404.03
2022-10-17T15:21:58.544Z,101396.16
2022-10-17T15:24:44.789Z,101408.44
2022-10-17T15:27:30.392Z,101404.00
2022-10-17T15:30:31.558Z,101425.97
2022-10-17T15:33:16.726Z,101417.13
2022-10-17T15:36:01.587Z,101428.66
2022-10-17T15:38:47.829Z,101433.94
2022-10-17T15:41:33.316Z,101448.88
2022-10-17T15:44:18.331Z,101440.16
2022-10-17T15:47:04.211Z,101447.16
2022-10-17T15:49:50.198Z,101458.53
2022-10-17T15:52:35.480Z,101465.63
2022-10-17T15:55:20.829Z,101469.16
2022-10-17T15:58:06.398Z,101473.59
2022-10-17T16:00:51.603Z,101492.91
2022-10-17T16:03:36.998Z,101488.53
2022-10-17T16:06:23.473Z,101481.50
2022-10-17T16:09:09.430Z,101492.84
2022-10-17T16:11:54.965Z,101501.69
2022-10-17T16:14:40.129Z,101516.66
2022-10-17T16:17:25.335Z,101506.16
2022-10-17T16:20:12.221Z,101516.69
2022-10-17T16:22:57.377Z,101512.31
2022-10-17T16:25:42.670Z,101521.97
2022-10-17T16:28:27.873Z,101513.25
2022-10-17T16:31:18.175Z,101517.69
2022-10-17T16:34:04.402Z,101548.41
2022-10-17T16:36:50.017Z,101554.53
2022-10-17T16:39:35.382Z,101554.53
2022-10-17T16:42:21.102Z,101558.94
2022-10-17T16:45:06.532Z,101565.06
2022-10-17T16:47:52.184Z,101565.09
2022-10-17T16:50:39.652Z,101586.09
2022-10-17T16:53:24.917Z,101598.28
2022-10-17T16:56:13.150Z,101602.66
2022-10-17T16:58:59.880Z,101587.81
2022-10-17T17:01:45.119Z,101602.66
2022-10-17T17:04:30.294Z,101612.19
2022-10-17T17:07:15.270Z,101619.16
2022-10-17T17:10:00.684Z,101627.00
2022-10-17T17:12:46.076Z,101618.31
2022-10-17T17:15:31.080Z,101616.53
2022-10-17T17:18:16.314Z,101631.34
2022-10-17T17:21:03.257Z,101633.09
2022-10-17T17:23:48.220Z,101644.41
2022-10-17T17:26:35.316Z,101639.19
2022-10-17T17:29:22.138Z,101651.31
2022-10-17T17:32:07.163Z,101660.88
2022-10-17T17:34:52.142Z,101661.72
2022-10-17T17:37:37.108Z,101664.31
2022-10-17T17:40:22.136Z,101653.88
2022-10-17T17:43:07.830Z,101652.16
2022-10-17T17:45:53.386Z,101653.88
2022-10-17T17:48:43.151Z,101652.16
2022-10-17T17:51:29.497Z,101651.25
2022-10-17T17:54:14.796Z,101655.56
2022-10-17T17:56:59.935Z,101660.81
2022-10-17T17:59:45.061Z,101652.03
2022-10-17T18:02:30.846Z,101647.72
2022-10-17T18:05:16.605Z,101645.13
2022-10-17T18:08:01.800Z,101644.28
2022-10-17T18:10:48.637Z,101637.25
2022-10-17T18:13:34.221Z,101643.31
2022-10-17T18:16:19.159Z,101652.03
2022-10-17T18:19:07.014Z,101665.03
2022-10-17T18:21:53.092Z,101659.81
2022-10-17T18:24:38.044Z,101673.81
2022-10-17T18:27:23.241Z,101686.03
2022-10-17T18:30:09.033Z,101679.97
2022-10-17T18:32:54.551Z,101682.59
2022-10-17T18:35:40.208Z,101669.50
2022-10-17T18:38:25.577Z,101672.03
2022-10-17T18:41:16.821Z,101680.75
2022-10-17T18:44:02.336Z,101679.03
2022-10-17T18:46:47.829Z,101688.56
2022-10-17T18:49:33.266Z,101700.78
2022-10-17T18:52:18.642Z,101695.50
2022-10-17T18:55:04.295Z,101709.38
2022-10-17T18:57:49.594Z,101720.56
2022-10-17T19:00:34.807Z,101735.34
2022-10-17T19:03:20.320Z,101733.59
2022-10-17T19:06:07.998Z,101738.88
2022-10-17T19:08:53.513Z,101744.09
2022-10-17T19:11:39.493Z,101751.03
2022-10-17T19:14:24.334Z,101744.00
2022-10-17T19:17:09.753Z,101754.47
2022-10-17T19:19:55.129Z,101749.22
2022-10-17T19:22:40.752Z,101754.44
2022-10-17T19:25:26.350Z,101749.16
2022-10-17T19:28:11.497Z,101756.19
2022-10-17T19:30:57.033Z,101760.56
2022-10-17T19:33:42.778Z,101754.47
2022-10-17T19:36:33.615Z,101758.81
2022-10-17T19:39:21.366Z,101742.28
2022-10-17T19:42:07.260Z,101743.28
2022-10-17T19:44:52.423Z,101731.97
2022-10-17T19:47:37.738Z,101737.06
2022-10-17T19:50:22.700Z,101737.97
2022-10-17T19:53:08.055Z,101738.88
2022-10-17T19:55:53.709Z,101744.88
2022-10-17T19:58:39.428Z,101750.06
2022-10-17T20:01:28.087Z,101757.03
2022-10-17T20:04:13.554Z,101760.47
2022-10-17T20:06:58.734Z,101761.34
2022-10-17T20:09:44.183Z,101761.34
2022-10-17T20:12:29.904Z,101770.06
2022-10-17T20:15:15.364Z,101769.16
2022-10-17T20:18:00.923Z,101776.09
2022-10-17T20:20:46.006Z,101781.50
2022-10-17T20:23:31.454Z,101793.75
2022-10-17T20:26:33.204Z,101791.88
2022-10-17T20:29:21.741Z,101792.72
2022-10-17T20:32:07.190Z,101798.63
2022-10-17T20:34:52.598Z,101801.25
2022-10-17T20:37:41.688Z,101802.13
2022-10-17T20:40:35.951Z,101804.84
2022-10-17T20:43:21.556Z,101810.97
2022-10-17T20:46:22.967Z,101806.53
2022-10-17T20:49:18.486Z,101809.94
2022-10-17T20:52:03.737Z,101810.91
2022-10-17T20:54:48.981Z,101816.19
2022-10-17T20:57:34.424Z,101810.88
2022-10-17T21:00:20.329Z,101816.88
2022-10-17T21:03:06.551Z,101815.13
2022-10-17T21:05:51.563Z,101821.22
2022-10-17T21:08:37.432Z,101825.63
2022-10-17T21:11:27.849Z,101821.25
2022-10-17T21:14:13.777Z,101824.72
2022-10-17T21:17:04.499Z,101838.72
2022-10-17T21:19:50.234Z,101845.59
2022-10-17T21:22:35.610Z,101841.22
2022-10-17T21:25:20.942Z,101841.25
2022-10-17T21:28:06.158Z,101843.81
2022-10-17T21:30:51.590Z,101850.75
2022-10-17T21:33:37.268Z,101846.47
2022-10-17T21:36:23.829Z,101843.88
2022-10-17T21:39:10.621Z,101840.53
2022-10-17T21:41:56.044Z,101842.31
2022-10-17T21:44:41.228Z,101830.19
2022-10-17T21:47:27.694Z,101822.44
2022-10-17T21:50:13.129Z,101826.72
2022-10-17T21:52:58.473Z,101818.81
2022-10-17T21:55:43.688Z,101821.47
2022-10-17T21:58:29.415Z,101809.28
2022-10-17T22:01:23.357Z,101814.56
2022-10-17T22:04:16.283Z,101819.69
2022-10-17T22:07:01.406Z,101819.53
2022-10-17T22:09:46.446Z,101818.66
2022-10-17T22:12:32.060Z,101815.47
2022-10-17T22:15:17.350Z,101818.78
2022-10-17T22:18:02.485Z,101818.13
2022-10-17T22:20:47.475Z,101818.81
2022-10-17T22:23:32.722Z,101817.03
2022-10-17T22:26:17.556Z,101830.84
2022-10-17T22:29:04.156Z,101830.81
2022-10-17T22:31:49.529Z,101828.16
2022-10-17T22:34:34.598Z,101840.31
2022-10-17T22:37:19.796Z,101835.03
2022-10-17T22:40:06.176Z,101847.31
2022-10-17T22:42:51.333Z,101842.97
2022-10-17T22:45:36.694Z,101854.41
2022-10-17T22:48:22.768Z,101859.59
2022-10-17T22:51:08.184Z,101860.50
2022-10-17T22:53:53.490Z,101863.91
2022-10-17T22:56:38.902Z,101868.31
2022-10-17T22:59:24.269Z,101870.91
2022-10-17T23:02:09.253Z,101865.63
2022-10-17T23:04:54.267Z,101855.09
2022-10-17T23:07:39.153Z,101863.06
2022-10-17T23:10:24.593Z,101866.53
2022-10-17T23:13:09.456Z,101855.13
2022-10-17T23:15:56.251Z,101852.53
2022-10-17T23:18:41.414Z,101865.44
2022-10-17T23:21:27.072Z,101854.94
2022-10-17T23:24:12.314Z,101857.78
2022-10-17T23:26:57.317Z,101858.50
2022-10-17T23:29:42.268Z,101857.56
2022-10-17T23:32:27.232Z,101867.88
2022-10-17T23:35:12.603Z,101861.84
2022-10-17T23:37:58.007Z,101855.91
2022-10-17T23:40:43.009Z,101849.03
2022-10-17T23:43:28.295Z,101842.91
2022-10-17T23:46:13.557Z,101840.16
2022-10-17T23:48:58.545Z,101840.97
2022-10-17T23:51:43.462Z,101846.22
2022-10-17T23:54:28.639Z,101854.16
2022-10-17T23:57:14.489Z,101848.03
2022-10-17T23:59:59.387Z,101846.38
